sensor_id;sensor_type;location;lat;lon;timestamp;pressure;altitude;pressure_sealevel;temperature;humidity
43161;BME280;40968;52.342;5.528;2023-04-28T00:02:10;101376.22;;;10.28;47.11
43161;BME280;40968;52.342;5.528;2023-04-28T00:04:36;101464.84;;;10.82;47.71
43161;BME280;40968;52.342;5.528;2023-04-28T00:07:03;101433.81;;;10.50;47.10
43161;BME280;40968;52.342;5.528;2023-04-28T00:09:29;101438.56;;;10.59;47.45
43161;BME280;40968;52.342;5.528;2023-04-28T00:11:57;101411.81;;;10.45;47.76
43161;BME280;40968;52.342;5.528;2023-04-28T00:14:24;101456.44;;;10.73;48.00
43161;BME280;40968;52.342;5.528;2023-04-28T00:16:50;101457.72;;;10.68;47.45
43161;BME280;40968;52.342;5.528;2023-04-28T00:19:17;101333.03;;;9.91;48.00
43161;BME280;40968;52.342;5.528;2023-04-28T00:21:44;101393.25;;;10.27;47.64
43161;BME280;40968;52.342;5.528;2023-04-28T00:24:11;101395.94;;;10.27;47.79
43161;BME280;40968;52.342;5.528;2023-04-28T00:26:37;101379.13;;;10.11;47.75
43161;BME280;40968;52.342;5.528;2023-04-28T00:29:05;101373.41;;;10.03;47.89
43161;BME280;40968;52.342;5.528;2023-04-28T00:31:32;101427.72;;;10.48;48.33
43161;BME280;40968;52.342;5.528;2023-04-28T00:33:59;101351.19;;;10.01;48.17
43161;BME280;40968;52.342;5.528;2023-04-28T00:36:26;101409.53;;;10.39;48.38
43161;BME280;40968;52.342;5.528;2023-04-28T00:38:56;101419.00;;;10.44;48.87
43161;BME280;40968;52.342;5.528;2023-04-28T00:41:22;101412.97;;;10.41;48.35
43161;BME280;40968;52.342;5.528;2023-04-28T00:43:49;101374.63;;;10.11;48.78
43161;BME280;40968;52.342;5.528;2023-04-28T00:46:20;101261.88;;;9.31;48.96
43161;BME280;40968;52.342;5.528;2023-04-28T00:48:48;101412.00;;;10.27;49.14
43161;BME280;40968;52.342;5.528;2023-04-28T00:51:15;101398.78;;;10.24;49.07
43161;BME280;40968;52.342;5.528;2023-04-28T00:53:42;101403.63;;;10.19;49.54
43161;BME280;40968;52.342;5.528;2023-04-28T00:56:09;101370.03;;;9.99;49.47
43161;BME280;40968;52.342;5.528;2023-04-28T00:58:37;101393.47;;;10.10;49.79
43161;BME280;40968;52.342;5.528;2023-04-28T01:01:04;101389.09;;;10.09;49.98
43161;BME280;40968;52.342;5.528;2023-04-28T01:03:34;101165.31;;;8.63;50.55
43161;BME280;40968;52.342;5.528;2023-04-28T01:06:03;101297.72;;;9.43;50.43
43161;BME280;40968;52.342;5.528;2023-04-28T01:08:30;101386.41;;;9.94;50.43
43161;BME280;40968;52.342;5.528;2023-04-28T01:10:57;101393.56;;;9.94;50.85
43161;BME280;40968;52.342;5.528;2023-04-28T01:13:24;101338.16;;;9.67;51.01
43161;BME280;40968;52.342;5.528;2023-04-28T01:15:50;101382.22;;;9.90;50.56
43161;BME280;40968;52.342;5.528;2023-04-28T01:18:17;101382.38;;;9.87;51.19
43161;BME280;40968;52.342;5.528;2023-04-28T01:20:46;101313.59;;;9.46;51.19
43161;BME280;40968;52.342;5.528;2023-04-28T01:23:12;101392.06;;;9.90;51.27
43161;BME280;40968;52.342;5.528;2023-04-28T01:25:41;101296.28;;;9.23;50.92
43161;BME280;40968;52.342;5.528;2023-04-28T01:28:08;101345.59;;;9.62;51.17
43161;BME280;40968;52.342;5.528;2023-04-28T01:30:34;101355.63;;;9.58;51.56
43161;BME280;40968;52.342;5.528;2023-04-28T01:33:01;101212.75;;;8.74;51.22
43161;BME280;40968;52.342;5.528;2023-04-28T01:35:28;101374.16;;;9.76;51.96
43161;BME280;40968;52.342;5.528;2023-04-28T01:37:55;101369.78;;;9.75;52.13
43161;BME280;40968;52.342;5.528;2023-04-28T01:40:22;101340.44;;;9.59;52.44
43161;BME280;40968;52.342;5.528;2023-04-28T01:42:50;101361.94;;;9.72;52.68
43161;BME280;40968;52.342;5.528;2023-04-28T01:45:16;101362.13;;;9.69;53.00
43161;BME280;40968;52.342;5.528;2023-04-28T01:47:43;101239.78;;;8.84;53.17
43161;BME280;40968;52.342;5.528;2023-04-28T01:50:10;101265.03;;;9.09;53.23
43161;BME280;40968;52.342;5.528;2023-04-28T01:52:37;101354.31;;;9.51;53.49
43161;BME280;40968;52.342;5.528;2023-04-28T01:55:05;101202.91;;;8.60;53.82
43161;BME280;40968;52.342;5.528;2023-04-28T01:57:31;101247.78;;;8.84;53.04
43161;BME280;40968;52.342;5.528;2023-04-28T02:00:01;101349.41;;;9.43;53.51
43161;BME280;40968;52.342;5.528;2023-04-28T02:02:28;101287.56;;;9.05;53.70
43161;BME280;40968;52.342;5.528;2023-04-28T02:04:54;101237.31;;;8.81;53.98
43161;BME280;40968;52.342;5.528;2023-04-28T02:07:22;101248.56;;;8.72;53.66
43161;BME280;40968;52.342;5.528;2023-04-28T02:09:49;101292.81;;;9.06;53.81
43161;BME280;40968;52.342;5.528;2023-04-28T02:12:15;101304.50;;;9.20;53.65
43161;BME280;40968;52.342;5.528;2023-04-28T02:14:42;101329.69;;;9.30;54.11
43161;BME280;40968;52.342;5.528;2023-04-28T02:17:10;101326.28;;;9.28;54.19
43161;BME280;40968;52.342;5.528;2023-04-28T02:19:36;101330.78;;;9.27;54.29
43161;BME280;40968;52.342;5.528;2023-04-28T02:22:03;101325.59;;;9.24;54.31
43161;BME280;40968;52.342;5.528;2023-04-28T02:24:34;101303.03;;;9.14;54.53
43161;BME280;40968;52.342;5.528;2023-04-28T02:27:00;101230.78;;;8.71;54.42
43161;BME280;40968;52.342;5.528;2023-04-28T02:29:27;101302.66;;;9.06;54.02
43161;BME280;40968;52.342;5.528;2023-04-28T02:31:54;101281.03;;;8.94;54.08
43161;BME280;40968;52.342;5.528;2023-04-28T02:34:22;101277.41;;;8.95;54.12
43161;BME280;40968;52.342;5.528;2023-04-28T02:36:49;101271.13;;;8.96;54.57
43161;BME280;40968;52.342;5.528;2023-04-28T02:39:15;101312.59;;;9.18;54.44
43161;BME280;40968;52.342;5.528;2023-04-28T02:41:42;101200.53;;;8.56;54.64
43161;BME280;40968;52.342;5.528;2023-04-28T02:44:08;101017.41;;;7.46;54.50
43161;BME280;40968;52.342;5.528;2023-04-28T02:46:35;101243.69;;;8.78;54.60
43161;BME280;40968;52.342;5.528;2023-04-28T02:49:02;101146.50;;;8.20;54.70
43161;BME280;40968;52.342;5.528;2023-04-28T02:51:30;101254.50;;;8.91;54.59
43161;BME280;40968;52.342;5.528;2023-04-28T02:53:57;101223.34;;;8.76;54.49
43161;BME280;40968;52.342;5.528;2023-04-28T02:56:23;101225.44;;;8.71;54.74
43161;BME280;40968;52.342;5.528;2023-04-28T02:58:50;101212.75;;;8.60;54.62
43161;BME280;40968;52.342;5.528;2023-04-28T03:01:17;101244.38;;;8.82;54.51
43161;BME280;40968;52.342;5.528;2023-04-28T03:03:43;101264.44;;;9.04;54.64
43161;BME280;40968;52.342;5.528;2023-04-28T03:06:10;101262.75;;;9.03;54.82
43161;BME280;40968;52.342;5.528;2023-04-28T03:08:38;101187.56;;;8.64;54.65
43161;BME280;40968;52.342;5.528;2023-04-28T03:11:04;101153.31;;;8.40;54.75
43161;BME280;40968;52.342;5.528;2023-04-28T03:13:31;101220.22;;;8.84;55.11
43161;BME280;40968;52.342;5.528;2023-04-28T03:15:58;101205.44;;;8.78;54.59
43161;BME280;40968;52.342;5.528;2023-04-28T03:18:24;101155.38;;;8.51;54.94
43161;BME280;40968;52.342;5.528;2023-04-28T03:20:51;101173.94;;;8.69;55.17
43161;BME280;40968;52.342;5.528;2023-04-28T03:23:17;101190.25;;;8.78;55.16
43161;BME280;40968;52.342;5.528;2023-04-28T03:25:45;101040.03;;;7.85;54.65
43161;BME280;40968;52.342;5.528;2023-04-28T03:28:12;101060.38;;;8.02;54.69
43161;BME280;40968;52.342;5.528;2023-04-28T03:30:38;101178.81;;;8.76;54.71
43161;BME280;40968;52.342;5.528;2023-04-28T03:33:05;101073.44;;;8.21;54.65
43161;BME280;40968;52.342;5.528;2023-04-28T03:35:32;101156.53;;;8.76;54.55
43161;BME280;40968;52.342;5.528;2023-04-28T03:37:58;101141.84;;;8.69;54.54
43161;BME280;40968;52.342;5.528;2023-04-28T03:40:25;101143.75;;;8.67;54.56
43161;BME280;40968;52.342;5.528;2023-04-28T03:42:53;101160.09;;;8.76;54.77
43161;BME280;40968;52.342;5.528;2023-04-28T03:45:19;101075.16;;;8.22;54.62
43161;BME280;40968;52.342;5.528;2023-04-28T03:47:46;101144.34;;;8.72;54.73
43161;BME280;40968;52.342;5.528;2023-04-28T03:50:12;101057.03;;;8.13;54.33
43161;BME280;40968;52.342;5.528;2023-04-28T03:52:39;101088.66;;;8.35;54.95
43161;BME280;40968;52.342;5.528;2023-04-28T03:55:06;101104.81;;;8.62;55.24
43161;BME280;40968;52.342;5.528;2023-04-28T03:57:33;101122.69;;;8.76;54.84
43161;BME280;40968;52.342;5.528;2023-04-28T04:00:01;101163.03;;;9.01;54.86
43161;BME280;40968;52.342;5.528;2023-04-28T04:02:28;101161.53;;;8.96;54.48
43161;BME280;40968;52.342;5.528;2023-04-28T04:04:55;101165.91;;;8.98;54.90
43161;BME280;40968;52.342;5.528;2023-04-28T04:07:22;101027.09;;;8.08;54.37
43161;BME280;40968;52.342;5.528;2023-04-28T04:09:48;101168.75;;;8.94;54.45
43161;BME280;40968;52.342;5.528;2023-04-28T04:12:15;101160.75;;;8.94;54.95
43161;BME280;40968;52.342;5.528;2023-04-28T04:14:41;101170.50;;;8.95;54.59
43161;BME280;40968;52.342;5.528;2023-04-28T04:17:10;101080.78;;;8.48;54.69
43161;BME280;40968;52.342;5.528;2023-04-28T04:19:36;101117.50;;;8.73;54.89
43161;BME280;40968;52.342;5.528;2023-04-28T04:22:03;100893.38;;;7.39;53.96
43161;BME280;40968;52.342;5.528;2023-04-28T04:24:29;101163.25;;;8.98;54.59
43161;BME280;40968;52.342;5.528;2023-04-28T04:26:56;101090.50;;;8.63;54.68
43161;BME280;40968;52.342;5.528;2023-04-28T04:29:22;101152.34;;;9.01;54.44
43161;BME280;40968;52.342;5.528;2023-04-28T04:31:49;101112.94;;;8.75;54.21
43161;BME280;40968;52.342;5.528;2023-04-28T04:34:17;101150.63;;;9.00;54.15
43161;BME280;40968;52.342;5.528;2023-04-28T04:36:44;101152.63;;;8.96;54.50
43161;BME280;40968;52.342;5.528;2023-04-28T04:39:10;101094.41;;;8.72;54.70
43161;BME280;40968;52.342;5.528;2023-04-28T04:41:37;101141.75;;;8.99;54.75
43161;BME280;40968;52.342;5.528;2023-04-28T04:44:04;101119.91;;;8.78;54.55
43161;BME280;40968;52.342;5.528;2023-04-28T04:46:30;100938.03;;;7.66;54.42
43161;BME280;40968;52.342;5.528;2023-04-28T04:48:57;101153.88;;;9.05;54.30
43161;BME280;40968;52.342;5.528;2023-04-28T04:51:25;101140.50;;;9.05;54.57
43161;BME280;40968;52.342;5.528;2023-04-28T04:53:52;101144.69;;;9.09;55.30
43161;BME280;40968;52.342;5.528;2023-04-28T04:56:19;101092.59;;;8.87;55.36
43161;BME280;40968;52.342;5.528;2023-04-28T04:58:45;100885.53;;;7.66;54.68
43161;BME280;40968;52.342;5.528;2023-04-28T05:01:12;100885.44;;;7.68;54.60
43161;BME280;40968;52.342;5.528;2023-04-28T05:03:38;101105.50;;;8.95;54.11
43161;BME280;40968;52.342;5.528;2023-04-28T05:06:05;101075.22;;;8.80;54.59
43161;BME280;40968;52.342;5.528;2023-04-28T05:08:33;101127.78;;;9.23;54.94
43161;BME280;40968;52.342;5.528;2023-04-28T05:10:59;101107.09;;;9.12;54.78
43161;BME280;40968;52.342;5.528;2023-04-28T05:13:26;101020.84;;;8.67;54.73
43161;BME280;40968;52.342;5.528;2023-04-28T05:15:53;101057.66;;;8.90;54.16
43161;BME280;40968;52.342;5.528;2023-04-28T05:18:19;101123.00;;;9.28;54.45
43161;BME280;40968;52.342;5.528;2023-04-28T05:20:46;101025.97;;;8.70;54.71
43161;BME280;40968;52.342;5.528;2023-04-28T05:23:13;101108.50;;;9.18;54.66
43161;BME280;40968;52.342;5.528;2023-04-28T05:25:41;101068.91;;;8.95;54.79
43161;BME280;40968;52.342;5.528;2023-04-28T05:28:08;101016.16;;;8.70;54.95
43161;BME280;40968;52.342;5.528;2023-04-28T05:30:35;100969.97;;;8.39;55.21
43161;BME280;40968;52.342;5.528;2023-04-28T05:33:02;101001.56;;;8.61;55.37
43161;BME280;40968;52.342;5.528;2023-04-28T05:35:28;101094.84;;;9.22;55.41
43161;BME280;40968;52.342;5.528;2023-04-28T05:37:56;101110.66;;;9.40;55.18
43161;BME280;40968;52.342;5.528;2023-04-28T05:40:23;101051.22;;;9.07;54.94
43161;BME280;40968;52.342;5.528;2023-04-28T05:42:51;101079.75;;;9.21;54.82
43161;BME280;40968;52.342;5.528;2023-04-28T05:45:17;101088.94;;;9.17;55.50
43161;BME280;40968;52.342;5.528;2023-04-28T05:47:44;101079.94;;;9.18;55.32
43161;BME280;40968;52.342;5.528;2023-04-28T05:50:10;101044.84;;;8.95;55.25
43161;BME280;40968;52.342;5.528;2023-04-28T05:52:37;101032.34;;;8.82;55.75
43161;BME280;40968;52.342;5.528;2023-04-28T05:55:04;101043.78;;;8.98;55.77
43161;BME280;40968;52.342;5.528;2023-04-28T05:57:31;101128.97;;;9.46;56.29
43161;BME280;40968;52.342;5.528;2023-04-28T05:59:59;101072.69;;;9.20;56.91
43161;BME280;40968;52.342;5.528;2023-04-28T06:02:26;101116.56;;;9.45;58.05
43161;BME280;40968;52.342;5.528;2023-04-28T06:04:53;101110.25;;;9.46;59.26
43161;BME280;40968;52.342;5.528;2023-04-28T06:07:19;101109.47;;;9.44;59.43
43161;BME280;40968;52.342;5.528;2023-04-28T06:09:46;101080.13;;;9.15;59.84
43161;BME280;40968;52.342;5.528;2023-04-28T06:12:13;101114.09;;;9.42;60.54
43161;BME280;40968;52.342;5.528;2023-04-28T06:14:39;101097.66;;;9.34;61.15
43161;BME280;40968;52.342;5.528;2023-04-28T06:17:07;101102.50;;;9.41;61.72
43161;BME280;40968;52.342;5.528;2023-04-28T06:19:34;101008.97;;;8.85;62.38
43161;BME280;40968;52.342;5.528;2023-04-28T06:22:01;101059.53;;;9.17;62.41
43161;BME280;40968;52.342;5.528;2023-04-28T06:24:28;101077.44;;;9.29;62.75
43161;BME280;40968;52.342;5.528;2023-04-28T06:26:54;100841.78;;;7.97;63.05
43161;BME280;40968;52.342;5.528;2023-04-28T06:29:21;100883.59;;;8.26;63.51
43161;BME280;40968;52.342;5.528;2023-04-28T06:31:48;101049.22;;;9.11;64.07
43161;BME280;40968;52.342;5.528;2023-04-28T06:34:17;101051.03;;;9.10;64.17
43161;BME280;40968;52.342;5.528;2023-04-28T06:36:43;101059.91;;;9.11;64.40
43161;BME280;40968;52.342;5.528;2023-04-28T06:39:10;101005.63;;;8.82;64.82
43161;BME280;40968;52.342;5.528;2023-04-28T06:41:37;100997.94;;;8.77;65.11
43161;BME280;40968;52.342;5.528;2023-04-28T06:44:03;101030.63;;;8.95;65.04
43161;BME280;40968;52.342;5.528;2023-04-28T06:46:30;100808.25;;;7.64;65.42
43161;BME280;40968;52.342;5.528;2023-04-28T06:48:57;101013.16;;;8.89;65.69
43161;BME280;40968;52.342;5.528;2023-04-28T06:51:25;101086.84;;;9.35;65.64
43161;BME280;40968;52.342;5.528;2023-04-28T06:53:53;100797.97;;;7.58;65.79
43161;BME280;40968;52.342;5.528;2023-04-28T06:56:19;101079.03;;;9.32;66.15
43161;BME280;40968;52.342;5.528;2023-04-28T06:58:46;101029.16;;;9.04;66.42
43161;BME280;40968;52.342;5.528;2023-04-28T07:01:13;101012.78;;;8.95;66.62
43161;BME280;40968;52.342;5.528;2023-04-28T07:03:39;101100.50;;;9.45;66.93
43161;BME280;40968;52.342;5.528;2023-04-28T07:06:06;101043.03;;;9.10;67.19
43161;BME280;40968;52.342;5.528;2023-04-28T07:08:35;101093.59;;;9.55;67.48
43161;BME280;40968;52.342;5.528;2023-04-28T07:11:01;101060.78;;;9.39;67.75
43161;BME280;40968;52.342;5.528;2023-04-28T07:13:28;100969.44;;;8.90;67.92
43161;BME280;40968;52.342;5.528;2023-04-28T07:15:55;101023.69;;;9.20;67.89
43161;BME280;40968;52.342;5.528;2023-04-28T07:18:22;101104.78;;;9.75;67.91
43161;BME280;40968;52.342;5.528;2023-04-28T07:20:48;101090.25;;;9.79;68.07
43161;BME280;40968;52.342;5.528;2023-04-28T07:23:15;101094.53;;;9.82;68.36
43161;BME280;40968;52.342;5.528;2023-04-28T07:25:43;100877.16;;;8.57;68.77
43161;BME280;40968;52.342;5.528;2023-04-28T07:28:09;101021.41;;;9.41;68.81
43161;BME280;40968;52.342;5.528;2023-04-28T07:30:36;101019.28;;;9.46;69.36
43161;BME280;40968;52.342;5.528;2023-04-28T07:33:03;101084.06;;;9.91;69.21
43161;BME280;40968;52.342;5.528;2023-04-28T07:35:29;101003.44;;;9.43;69.44
43161;BME280;40968;52.342;5.528;2023-04-28T07:37:56;101077.19;;;9.87;69.64
43161;BME280;40968;52.342;5.528;2023-04-28T07:40:23;101052.38;;;9.85;70.26
43161;BME280;40968;52.342;5.528;2023-04-28T07:42:51;100834.88;;;8.64;69.70
43161;BME280;40968;52.342;5.528;2023-04-28T07:45:18;101059.31;;;10.01;70.06
43161;BME280;40968;52.342;5.528;2023-04-28T07:47:45;101082.91;;;10.21;70.29
43161;BME280;40968;52.342;5.528;2023-04-28T07:50:11;101037.72;;;10.04;70.22
43161;BME280;40968;52.342;5.528;2023-04-28T07:52:38;100995.38;;;9.83;70.36
43161;BME280;40968;52.342;5.528;2023-04-28T07:55:05;101019.63;;;10.07;70.68
43161;BME280;40968;52.342;5.528;2023-04-28T07:57:32;101056.84;;;10.38;70.69
43161;BME280;40968;52.342;5.528;2023-04-28T08:00:00;101068.94;;;10.43;70.87
43161;BME280;40968;52.342;5.528;2023-04-28T08:02:26;100932.00;;;9.71;70.50
43161;BME280;40968;52.342;5.528;2023-04-28T08:04:53;101061.13;;;10.53;70.59
43161;BME280;40968;52.342;5.528;2023-04-28T08:07:20;101057.97;;;10.59;71.02
43161;BME280;40968;52.342;5.528;2023-04-28T08:09:46;100940.34;;;9.92;71.04
43161;BME280;40968;52.342;5.528;2023-04-28T08:12:13;100966.91;;;10.08;70.74
43161;BME280;40968;52.342;5.528;2023-04-28T08:14:40;100968.16;;;10.15;71.11
43161;BME280;40968;52.342;5.528;2023-04-28T08:17:08;101067.38;;;10.78;71.17
43161;BME280;40968;52.342;5.528;2023-04-28T08:19:35;101058.78;;;10.86;71.27
43161;BME280;40968;52.342;5.528;2023-04-28T08:22:01;101016.38;;;10.67;71.21
43161;BME280;40968;52.342;5.528;2023-04-28T08:24:30;101059.00;;;10.95;71.09
43161;BME280;40968;52.342;5.528;2023-04-28T08:26:59;100969.78;;;10.43;71.14
43161;BME280;40968;52.342;5.528;2023-04-28T08:29:27;101011.44;;;10.73;71.17
43161;BME280;40968;52.342;5.528;2023-04-28T08:31:53;101068.38;;;11.14;71.35
43161;BME280;40968;52.342;5.528;2023-04-28T08:34:21;101064.06;;;11.24;71.13
43161;BME280;40968;52.342;5.528;2023-04-28T08:36:48;101068.97;;;11.31;71.10
43161;BME280;40968;52.342;5.528;2023-04-28T08:39:15;100875.16;;;10.30;71.22
43161;BME280;40968;52.342;5.528;2023-04-28T08:41:42;100921.94;;;10.63;71.04
43161;BME280;40968;52.342;5.528;2023-04-28T08:44:09;101051.50;;;11.49;71.23
43161;BME280;40968;52.342;5.528;2023-04-28T08:46:38;101034.38;;;11.39;71.36
43161;BME280;40968;52.342;5.528;2023-04-28T08:49:06;100782.06;;;9.96;71.09
43161;BME280;40968;52.342;5.528;2023-04-28T08:51:44;101046.94;;;11.63;71.21
43161;BME280;40968;52.342;5.528;2023-04-28T08:54:13;101042.41;;;11.63;71.25
43161;BME280;40968;52.342;5.528;2023-04-28T08:56:40;101048.41;;;11.67;71.36
43161;BME280;40968;52.342;5.528;2023-04-28T08:59:10;100995.94;;;11.38;71.53
43161;BME280;40968;52.342;5.528;2023-04-28T09:01:37;101036.97;;;11.76;71.81
43161;BME280;40968;52.342;5.528;2023-04-28T09:04:04;100833.09;;;10.56;71.92
43161;BME280;40968;52.342;5.528;2023-04-28T09:06:32;100933.81;;;11.20;72.39
43161;BME280;40968;52.342;5.528;2023-04-28T09:09:18;101022.81;;;11.85;72.68
43161;BME280;40968;52.342;5.528;2023-04-28T09:11:52;100957.31;;;11.52;73.12
43161;BME280;40968;52.342;5.528;2023-04-28T09:14:20;100916.75;;;11.33;73.92
43161;BME280;40968;52.342;5.528;2023-04-28T09:16:46;100826.97;;;10.78;73.69
43161;BME280;40968;52.342;5.528;2023-04-28T09:19:13;100910.06;;;11.38;74.57
43161;BME280;40968;52.342;5.528;2023-04-28T09:21:54;100930.75;;;11.60;74.59
43161;BME280;40968;52.342;5.528;2023-04-28T09:24:32;100984.25;;;11.86;74.70
43161;BME280;40968;52.342;5.528;2023-04-28T09:27:00;100920.38;;;11.56;74.81
43161;BME280;40968;52.342;5.528;2023-04-28T09:29:27;100992.97;;;12.01;75.10
43161;BME280;40968;52.342;5.528;2023-04-28T09:32:11;100956.66;;;11.73;75.10
43161;BME280;40968;52.342;5.528;2023-04-28T09:34:42;101019.41;;;12.19;75.05
43161;BME280;40968;52.342;5.528;2023-04-28T09:37:14;101006.34;;;12.25;74.93
43161;BME280;40968;52.342;5.528;2023-04-28T09:39:42;100976.38;;;12.07;74.86
43161;BME280;40968;52.342;5.528;2023-04-28T09:42:09;100994.84;;;12.23;74.31
43161;BME280;40968;52.342;5.528;2023-04-28T09:44:36;100973.09;;;12.15;74.76
43161;BME280;40968;52.342;5.528;2023-04-28T09:47:18;100879.16;;;11.57;74.65
43161;BME280;40968;52.342;5.528;2023-04-28T09:49:52;100993.38;;;12.31;74.18
43161;BME280;40968;52.342;5.528;2023-04-28T09:52:19;100785.28;;;11.10;74.28
43161;BME280;40968;52.342;5.528;2023-04-28T09:54:49;100960.91;;;12.22;74.53
43161;BME280;40968;52.342;5.528;2023-04-28T09:57:16;100990.69;;;12.53;74.33
43161;BME280;40968;52.342;5.528;2023-04-28T09:59:46;101002.91;;;12.57;74.12
43161;BME280;40968;52.342;5.528;2023-04-28T10:02:14;100808.25;;;11.48;74.44
43161;BME280;40968;52.342;5.528;2023-04-28T10:04:41;100851.56;;;11.77;74.71
43161;BME280;40968;52.342;5.528;2023-04-28T10:07:11;101001.94;;;12.70;74.69
43161;BME280;40968;52.342;5.528;2023-04-28T10:09:39;100947.19;;;12.48;75.11
43161;BME280;40968;52.342;5.528;2023-04-28T10:12:09;100999.59;;;12.76;75.38
43161;BME280;40968;52.342;5.528;2023-04-28T10:14:36;100942.06;;;12.45;75.36
43161;BME280;40968;52.342;5.528;2023-04-28T10:17:03;100770.06;;;11.44;75.52
43161;BME280;40968;52.342;5.528;2023-04-28T10:19:31;100763.34;;;11.27;76.16
43161;BME280;40968;52.342;5.528;2023-04-28T10:22:05;100981.41;;;12.69;76.36
43161;BME280;40968;52.342;5.528;2023-04-28T10:24:52;100952.22;;;12.53;76.59
43161;BME280;40968;52.342;5.528;2023-04-28T10:27:29;100875.28;;;12.06;76.54
43161;BME280;40968;52.342;5.528;2023-04-28T10:30:09;100949.88;;;12.48;76.72
43161;BME280;40968;52.342;5.528;2023-04-28T10:32:36;101006.91;;;12.74;77.04
43161;BME280;40968;52.342;5.528;2023-04-28T10:35:40;100995.31;;;12.74;76.94
43161;BME280;40968;52.342;5.528;2023-04-28T10:38:08;101001.53;;;12.74;77.00
43161;BME280;40968;52.342;5.528;2023-04-28T10:40:37;100970.28;;;12.62;77.17
43161;BME280;40968;52.342;5.528;2023-04-28T10:43:06;100997.16;;;12.73;77.32
43161;BME280;40968;52.342;5.528;2023-04-28T10:46:00;100962.84;;;12.54;77.60
43161;BME280;40968;52.342;5.528;2023-04-28T10:48:53;101000.44;;;12.77;77.75
43161;BME280;40968;52.342;5.528;2023-04-28T10:51:21;100947.44;;;12.45;77.82
43161;BME280;40968;52.342;5.528;2023-04-28T10:54:17;101000.97;;;12.71;78.13
43161;BME280;40968;52.342;5.528;2023-04-28T10:57:18;101001.94;;;12.70;78.18
43161;BME280;40968;52.342;5.528;2023-04-28T10:59:48;100952.34;;;12.40;78.10
43161;BME280;40968;52.342;5.528;2023-04-28T11:02:45;101004.34;;;12.73;78.64
43161;BME280;40968;52.342;5.528;2023-04-28T11:05:17;101002.41;;;12.75;79.06
43161;BME280;40968;52.342;5.528;2023-04-28T11:11:15;100880.56;;;12.08;79.92
43161;BME280;40968;52.342;5.528;2023-04-28T11:13:42;101004.97;;;12.88;80.34
43161;BME280;40968;52.342;5.528;2023-04-28T11:16:13;101001.19;;;12.90;80.64
43161;BME280;40968;52.342;5.528;2023-04-28T11:18:52;101000.91;;;12.93;80.94
43161;BME280;40968;52.342;5.528;2023-04-28T11:21:20;100998.69;;;12.99;81.23
43161;BME280;40968;52.342;5.528;2023-04-28T11:23:48;100992.09;;;13.03;81.40
43161;BME280;40968;52.342;5.528;2023-04-28T11:26:15;100937.34;;;12.81;81.52
43161;BME280;40968;52.342;5.528;2023-04-28T11:28:46;100819.25;;;12.13;81.70
43161;BME280;40968;52.342;5.528;2023-04-28T11:31:15;100987.88;;;13.21;81.91
43161;BME280;40968;52.342;5.528;2023-04-28T11:33:46;100938.44;;;12.90;82.17
43161;BME280;40968;52.342;5.528;2023-04-28T11:36:32;100992.88;;;13.26;81.84
43161;BME280;40968;52.342;5.528;2023-04-28T11:38:59;100948.06;;;13.04;81.88
43161;BME280;40968;52.342;5.528;2023-04-28T11:41:26;100984.25;;;13.32;81.70
43161;BME280;40968;52.342;5.528;2023-04-28T11:43:53;100951.69;;;13.14;81.93
43161;BME280;40968;52.342;5.528;2023-04-28T11:46:22;100944.75;;;13.12;81.78
43161;BME280;40968;52.342;5.528;2023-04-28T11:48:59;100918.00;;;12.99;81.66
43161;BME280;40968;52.342;5.528;2023-04-28T11:51:30;100856.97;;;12.67;81.89
43161;BME280;40968;52.342;5.528;2023-04-28T11:53:57;100815.53;;;12.37;81.72
43161;BME280;40968;52.342;5.528;2023-04-28T11:56:24;100899.44;;;12.96;81.63
43161;BME280;40968;52.342;5.528;2023-04-28T11:59:02;100994.13;;;13.54;81.90
43161;BME280;40968;52.342;5.528;2023-04-28T12:01:31;100950.84;;;13.35;81.70
43161;BME280;40968;52.342;5.528;2023-04-28T12:03:58;100894.38;;;13.02;81.79
43161;BME280;40968;52.342;5.528;2023-04-28T12:06:25;100951.63;;;13.37;81.62
43161;BME280;40968;52.342;5.528;2023-04-28T12:08:53;100925.00;;;13.22;81.62
43161;BME280;40968;52.342;5.528;2023-04-28T12:11:20;100942.91;;;13.33;81.93
43161;BME280;40968;52.342;5.528;2023-04-28T12:14:03;100943.84;;;13.22;81.95
43161;BME280;40968;52.342;5.528;2023-04-28T12:16:42;100736.19;;;12.10;81.53
43161;BME280;40968;52.342;5.528;2023-04-28T12:19:10;100940.22;;;13.33;81.81
43161;BME280;40968;52.342;5.528;2023-04-28T12:21:39;100830.53;;;12.72;81.61
43161;BME280;40968;52.342;5.528;2023-04-28T12:24:14;100980.16;;;13.60;82.10
43161;BME280;40968;52.342;5.528;2023-04-28T12:26:41;100935.72;;;13.34;81.97
43161;BME280;40968;52.342;5.528;2023-04-28T12:29:08;100952.09;;;13.42;82.01
43161;BME280;40968;52.342;5.528;2023-04-28T12:31:48;100987.94;;;13.64;82.11
43161;BME280;40968;52.342;5.528;2023-04-28T12:34:17;100939.75;;;13.39;82.22
43161;BME280;40968;52.342;5.528;2023-04-28T12:36:43;100939.00;;;13.37;82.23
43161;BME280;40968;52.342;5.528;2023-04-28T12:39:13;100986.00;;;13.66;82.30
43161;BME280;40968;52.342;5.528;2023-04-28T12:41:40;100727.66;;;12.16;82.27
43161;BME280;40968;52.342;5.528;2023-04-28T12:44:09;100980.34;;;13.69;82.47
43161;BME280;40968;52.342;5.528;2023-04-28T12:46:35;100931.16;;;13.34;82.40
43161;BME280;40968;52.342;5.528;2023-04-28T12:49:04;100984.50;;;13.73;82.36
43161;BME280;40968;52.342;5.528;2023-04-28T12:51:30;100988.88;;;13.74;82.51
43161;BME280;40968;52.342;5.528;2023-04-28T12:53:59;100915.16;;;13.33;82.22
43161;BME280;40968;52.342;5.528;2023-04-28T12:56:26;100975.97;;;13.68;82.39
43161;BME280;40968;52.342;5.528;2023-04-28T12:58:53;100964.44;;;13.66;82.82
43161;BME280;40968;52.342;5.528;2023-04-28T13:01:19;100984.38;;;13.74;83.09
43161;BME280;40968;52.342;5.528;2023-04-28T13:03:46;100971.78;;;13.64;83.40
43161;BME280;40968;52.342;5.528;2023-04-28T13:06:16;100951.31;;;13.51;83.06